Etusivu
METAR-TAF:

METAR-TAF

Lentoasemat :

Austin, Minnesota, Yhdysvallat

Leveyspiiri: 43-40N, Pituuspiiri: 092-56W, korkeus merenpinnasta: 375 m

Tämänhetkinen sää

Tämä raportti tehtiin 12 minuuttia sitten, kello 12.16 UTC
Tuuli 6 kn etelästä/kaakosta
Lämpötila 2°C
Kosteus 93%
Ilmanpaine 1017 hPa
Näkyvyys: 16.1 km
Hajanaisia pilviä 6000 ft:n korkeudessa
Hajonneita pilviä 7000 ft:n korkeudessa
Pilvistä 10000 ft:n korkeudessa

METAR: KAUM 011216Z AUTO 15006KT 10SM SCT060 BKN070 OVC100 02/01 A3003 RMK AO2

Aika: 07:28 (12:28 UTC)


TAF: puuttuu

Säähavainnot ja -ennusteet yli 4000 lentoasemalta (METAR- ja TAF-raportit).

Käytössä olevat sääasemat on merkitty karttaan keltaisilla ja punaisilla pisteillä.

Aseta hiiri pisteen päälle nähdäksesi sääaseman nimen.

Klikkaa sitten nähdäksesi säähavainnot ja -ennusteet.

Kartan vaihtaminen: klikkaa mustalla rastilla varustettuja vihreitä pisteitä, niin voit zoomata sisään; viivalla varustettua vihreää pistettä, niin voit zoomata ulos tai vihreitä nuolia, niin pääset viereisille kartoille.


METAR-TAF: